Time;durP1;ratioP1;P1;durP2;ratioP2;P2;SDS_P1;SDS_P2;PMS_P1;PMS_P2;Temp;Humidity;BMP_temperature;BMP_pressure;BME280_temperature;BME280_humidity;BME280_pressure;Samples;Min_cycle;Max_cycle;Signal;HPM_P1;HPM_P2
2023/07/16 00:00:46;;;;;;;8.85;4.70;;;;;;;;;;4948614;29;20073;-87
2023/07/16 00:03:13;;;;;;;11.98;4.25;;;;;;;;;;4940432;28;20039;-86
2023/07/16 00:05:39;;;;;;;6.82;4.20;;;;;;;;;;4958615;29;20031;-86
2023/07/16 00:08:05;;;;;;;8.63;3.80;;;;;;;;;;4954929;29;20042;-87
2023/07/16 00:10:33;;;;;;;7.05;3.50;;;;;;;;;;4922034;29;20035;-88
2023/07/16 00:12:59;;;;;;;9.70;3.53;;;;;;;;;;4958978;28;20035;-87
2023/07/16 00:15:25;;;;;;;14.25;4.45;;;;;;;;;;4941870;29;20126;-86
2023/07/16 00:17:50;;;;;;;9.30;3.38;;;;;;;;;;4958262;29;20423;-88
2023/07/16 00:20:16;;;;;;;6.60;3.30;;;;;;;;;;4958559;29;20380;-87
2023/07/16 00:22:41;;;;;;;6.82;3.15;;;;;;;;;;4940503;29;20043;-89
2023/07/16 00:25:07;;;;;;;6.60;3.22;;;;;;;;;;4940676;29;20042;-87
2023/07/16 00:27:32;;;;;;;5.10;2.88;;;;;;;;;;4957841;29;20110;-87
2023/07/16 00:29:58;;;;;;;4.57;3.10;;;;;;;;;;4957540;29;20038;-87
2023/07/16 00:32:24;;;;;;;6.32;3.15;;;;;;;;;;4940346;29;20551;-88
2023/07/16 00:34:50;;;;;;;7.72;3.67;;;;;;;;;;4924492;29;20131;-88
2023/07/16 00:37:15;;;;;;;6.35;3.80;;;;;;;;;;4924616;29;20039;-87
2023/07/16 00:39:41;;;;;;;6.93;3.83;;;;;;;;;;4957319;29;20073;-86
2023/07/16 00:42:06;;;;;;;12.45;3.92;;;;;;;;;;4924070;29;20039;-87
2023/07/16 00:44:32;;;;;;;6.22;3.55;;;;;;;;;;4940138;29;20039;-86
2023/07/16 00:46:58;;;;;;;8.45;4.07;;;;;;;;;;4940323;29;20036;-86
2023/07/16 00:49:24;;;;;;;8.77;4.55;;;;;;;;;;4940415;29;20106;-86
2023/07/16 00:51:50;;;;;;;6.85;4.22;;;;;;;;;;4957040;29;20451;-86
2023/07/16 00:54:15;;;;;;;9.27;3.88;;;;;;;;;;4939481;29;20407;-86
2023/07/16 00:56:41;;;;;;;10.93;4.03;;;;;;;;;;4940612;29;20041;-85
2023/07/16 00:59:06;;;;;;;9.00;3.75;;;;;;;;;;4924500;29;20031;-86
2023/07/16 01:01:32;;;;;;;9.75;3.80;;;;;;;;;;4956988;29;20042;-87
2023/07/16 01:03:58;;;;;;;7.35;3.92;;;;;;;;;;4939716;29;20038;-85
2023/07/16 01:06:23;;;;;;;9.15;3.50;;;;;;;;;;4908279;29;20023;-84
2023/07/16 01:08:51;;;;;;;7.22;4.25;;;;;;;;;;4942940;29;20031;-81
2023/07/16 01:11:18;;;;;;;8.93;3.58;;;;;;;;;;4951190;29;20031;-83
2023/07/16 01:13:44;;;;;;;7.30;3.75;;;;;;;;;;4943025;29;20482;-85
2023/07/16 01:16:20;;;;;;;9.38;3.33;;;;;;;;;;4940631;29;20039;-84
2023/07/16 01:18:45;;;;;;;10.82;3.55;;;;;;;;;;4939566;29;20106;-86
2023/07/16 01:21:11;;;;;;;9.07;3.60;;;;;;;;;;4923345;29;20126;-87
2023/07/16 01:23:55;;;;;;;9.77;3.80;;;;;;;;;;4938035;29;20106;-86
2023/07/16 01:26:36;;;;;;;11.00;4.03;;;;;;;;;;4956465;29;20028;-85
2023/07/16 01:29:21;;;;;;;7.88;4.00;;;;;;;;;;4923517;29;20031;-85
2023/07/16 01:31:48;;;;;;;5.82;3.15;;;;;;;;;;4923476;29;20031;-84
2023/07/16 01:34:13;;;;;;;7.10;3.72;;;;;;;;;;4923557;29;20411;-85
2023/07/16 01:36:39;;;;;;;11.25;3.58;;;;;;;;;;4956327;29;20039;-85
2023/07/16 01:39:05;;;;;;;10.65;4.43;;;;;;;;;;4956491;29;20035;-84
2023/07/16 01:41:31;;;;;;;8.55;3.58;;;;;;;;;;4907419;29;20482;-82
2023/07/16 01:43:57;;;;;;;10.32;3.78;;;;;;;;;;4939270;29;20067;-84
2023/07/16 01:46:23;;;;;;;6.40;3.50;;;;;;;;;;4956943;29;20110;-84
2023/07/16 01:48:49;;;;;;;9.43;3.33;;;;;;;;;;4924238;29;20513;-84
2023/07/16 01:51:14;;;;;;;11.15;3.60;;;;;;;;;;4955935;29;20119;-83
2023/07/16 01:53:40;;;;;;;13.07;3.67;;;;;;;;;;4938987;29;20550;-84
2023/07/16 01:56:06;;;;;;;7.15;3.42;;;;;;;;;;4938876;29;20027;-84
2023/07/16 01:58:31;;;;;;;7.88;3.30;;;;;;;;;;4938457;29;20110;-84
2023/07/16 02:00:57;;;;;;;5.95;3.25;;;;;;;;;;4938388;29;20039;-83
2023/07/16 02:03:23;;;;;;;7.13;3.28;;;;;;;;;;4922445;29;20078;-83
2023/07/16 02:05:48;;;;;;;6.90;3.17;;;;;;;;;;4922582;29;20530;-82
2023/07/16 02:08:14;;;;;;;5.97;2.83;;;;;;;;;;4922757;29;20031;-83
2023/07/16 02:10:39;;;;;;;7.10;3.08;;;;;;;;;;4922118;29;20038;-83
2023/07/16 02:13:05;;;;;;;9.30;3.10;;;;;;;;;;4938188;28;20511;-83
2023/07/16 02:15:30;;;;;;;8.57;3.90;;;;;;;;;;4923837;29;20182;-82
2023/07/16 02:17:56;;;;;;;9.05;4.32;;;;;;;;;;4935732;28;20039;-84
2023/07/16 02:20:22;;;;;;;6.53;3.83;;;;;;;;;;4960503;28;20031;-82
2023/07/16 02:22:47;;;;;;;9.77;4.88;;;;;;;;;;4978294;28;20069;-82
2023/07/16 02:25:13;;;;;;;8.48;5.00;;;;;;;;;;4978069;28;20033;-83
2023/07/16 02:27:38;;;;;;;6.70;3.75;;;;;;;;;;4961553;28;20035;-82
2023/07/16 02:30:05;;;;;;;5.72;3.95;;;;;;;;;;4960638;28;20075;-83
2023/07/16 02:32:31;;;;;;;5.70;3.80;;;;;;;;;;4941045;29;20035;-82
2023/07/16 02:34:56;;;;;;;6.55;4.07;;;;;;;;;;4939700;29;20042;-83
2023/07/16 02:37:22;;;;;;;6.63;3.78;;;;;;;;;;4972632;29;20050;-83
2023/07/16 02:39:49;;;;;;;9.13;3.70;;;;;;;;;;4956306;29;20111;-84
2023/07/16 02:42:15;;;;;;;7.57;4.00;;;;;;;;;;4946669;29;20042;-84
2023/07/16 02:44:44;;;;;;;5.18;3.13;;;;;;;;;;4974954;28;20027;-82
2023/07/16 02:47:10;;;;;;;6.60;3.50;;;;;;;;;;4940476;29;20031;-81
2023/07/16 02:49:35;;;;;;;10.20;3.60;;;;;;;;;;4948936;29;20034;-83
2023/07/16 02:52:01;;;;;;;9.52;3.72;;;;;;;;;;4947533;29;20027;-80
2023/07/16 02:54:26;;;;;;;6.90;3.47;;;;;;;;;;4928339;29;20046;-81
2023/07/16 02:56:52;;;;;;;7.40;3.25;;;;;;;;;;4911704;29;20127;-81
2023/07/16 02:59:18;;;;;;;4.57;3.10;;;;;;;;;;4942921;29;20035;-82
2023/07/16 03:01:43;;;;;;;6.85;3.40;;;;;;;;;;4939966;29;20050;-84
2023/07/16 03:04:09;;;;;;;8.70;3.25;;;;;;;;;;4924484;29;20606;-81
2023/07/16 03:06:34;;;;;;;7.28;3.22;;;;;;;;;;4956862;29;20107;-84
2023/07/16 03:09:00;;;;;;;7.70;3.03;;;;;;;;;;4939425;29;20020;-82
2023/07/16 03:11:25;;;;;;;7.32;3.30;;;;;;;;;;4957394;29;20031;-83
2023/07/16 03:13:51;;;;;;;6.93;3.10;;;;;;;;;;4958368;28;20115;-82
2023/07/16 03:16:16;;;;;;;6.93;2.95;;;;;;;;;;4955402;29;20114;-81
2023/07/16 03:18:42;;;;;;;5.20;2.95;;;;;;;;;;4922080;29;20454;-84
2023/07/16 03:21:07;;;;;;;6.10;2.88;;;;;;;;;;4937799;29;20065;-83
2023/07/16 03:23:33;;;;;;;5.82;3.30;;;;;;;;;;4966427;23;20035;-76
2023/07/16 03:25:59;;;;;;;5.57;2.78;;;;;;;;;;4936985;29;20043;-77
2023/07/16 03:28:24;;;;;;;7.10;2.95;;;;;;;;;;4937137;29;20027;-76
2023/07/16 03:30:50;;;;;;;7.45;2.83;;;;;;;;;;4953897;29;20023;-74
2023/07/16 03:33:16;;;;;;;7.70;2.60;;;;;;;;;;4937488;29;20182;-76
2023/07/16 03:35:43;;;;;;;7.40;2.88;;;;;;;;;;4937161;29;20031;-76
2023/07/16 03:38:09;;;;;;;6.40;2.55;;;;;;;;;;4937166;29;20051;-74
2023/07/16 03:40:35;;;;;;;7.68;3.00;;;;;;;;;;4937038;29;20114;-76
2023/07/16 03:43:00;;;;;;;4.38;2.60;;;;;;;;;;4937466;29;20443;-75
2023/07/16 03:45:26;;;;;;;5.25;2.33;;;;;;;;;;4937716;29;20034;-77
2023/07/16 03:47:52;;;;;;;5.32;2.50;;;;;;;;;;4941034;29;20055;-76
2023/07/16 03:50:18;;;;;;;7.95;2.92;;;;;;;;;;4940625;29;20388;-77
2023/07/16 03:52:44;;;;;;;5.05;2.70;;;;;;;;;;4940410;29;20402;-75
2023/07/16 03:55:09;;;;;;;6.13;2.67;;;;;;;;;;4958154;28;20078;-76
2023/07/16 03:57:35;;;;;;;6.80;2.70;;;;;;;;;;4940849;29;20035;-76
2023/07/16 04:00:02;;;;;;;6.68;2.70;;;;;;;;;;4924743;29;20443;-77
2023/07/16 04:02:28;;;;;;;5.80;2.47;;;;;;;;;;4940389;29;20034;-76
2023/07/16 04:04:55;;;;;;;5.22;2.35;;;;;;;;;;4957628;28;20090;-76
2023/07/16 04:07:20;;;;;;;5.78;2.42;;;;;;;;;;4940891;29;20035;-77
2023/07/16 04:09:46;;;;;;;4.53;2.40;;;;;;;;;;4940496;29;20479;-74
2023/07/16 04:12:11;;;;;;;4.28;2.58;;;;;;;;;;4957268;29;20489;-76
2023/07/16 04:14:37;;;;;;;5.65;2.70;;;;;;;;;;4945424;29;20031;-75
2023/07/16 04:17:02;;;;;;;6.93;2.70;;;;;;;;;;4929668;29;20471;-76
2023/07/16 04:19:28;;;;;;;4.72;2.50;;;;;;;;;;4957269;29;20019;-76
2023/07/16 04:21:53;;;;;;;4.80;2.65;;;;;;;;;;4939606;29;20570;-76
2023/07/16 04:24:19;;;;;;;5.80;2.63;;;;;;;;;;4939685;29;20027;-77
2023/07/16 04:26:44;;;;;;;5.00;2.70;;;;;;;;;;4957026;29;20027;-76
2023/07/16 04:29:10;;;;;;;4.25;2.42;;;;;;;;;;4957183;29;20401;-77
2023/07/16 04:31:35;;;;;;;5.53;2.50;;;;;;;;;;4956582;29;20034;-77
2023/07/16 04:34:01;;;;;;;5.28;2.60;;;;;;;;;;4939881;29;20059;-76
2023/07/16 04:36:26;;;;;;;5.57;2.85;;;;;;;;;;4908361;29;20343;-76
2023/07/16 04:38:52;;;;;;;4.07;2.42;;;;;;;;;;4923945;29;20562;-74
2023/07/16 04:41:17;;;;;;;5.10;2.40;;;;;;;;;;4956449;29;20086;-76
2023/07/16 04:43:43;;;;;;;6.15;2.78;;;;;;;;;;4923850;29;20031;-75
2023/07/16 04:46:08;;;;;;;6.70;2.38;;;;;;;;;;4908433;29;20039;-75
2023/07/16 04:48:34;;;;;;;4.88;2.50;;;;;;;;;;4939878;29;20031;-76
2023/07/16 04:50:59;;;;;;;4.65;2.25;;;;;;;;;;4957790;29;20089;-76
2023/07/16 04:53:25;;;;;;;3.22;1.95;;;;;;;;;;4962844;28;20558;-75
2023/07/16 04:55:50;;;;;;;4.20;2.25;;;;;;;;;;4969426;29;20035;-77
2023/07/16 04:58:16;;;;;;;5.70;2.53;;;;;;;;;;4976141;28;20035;-76
2023/07/16 05:00:42;;;;;;;8.15;2.35;;;;;;;;;;4976060;29;20039;-77
2023/07/16 05:03:07;;;;;;;8.57;2.50;;;;;;;;;;4976197;29;20089;-76
2023/07/16 05:05:33;;;;;;;4.65;2.00;;;;;;;;;;4942107;29;20047;-75
2023/07/16 05:07:58;;;;;;;5.10;1.98;;;;;;;;;;4968759;29;20035;-77
2023/07/16 05:10:24;;;;;;;6.00;2.00;;;;;;;;;;4941941;29;20479;-76
2023/07/16 05:12:49;;;;;;;8.75;2.35;;;;;;;;;;4939049;29;20032;-78
2023/07/16 05:15:15;;;;;;;4.25;1.83;;;;;;;;;;4939028;29;20078;-73
2023/07/16 05:17:41;;;;;;;4.78;1.98;;;;;;;;;;4939505;29;20027;-77
2023/07/16 05:20:07;;;;;;;4.63;2.30;;;;;;;;;;4956894;29;20115;-76
2023/07/16 05:22:33;;;;;;;6.28;2.70;;;;;;;;;;4939694;29;20511;-77
2023/07/16 05:24:58;;;;;;;3.63;1.80;;;;;;;;;;4939459;29;20035;-76
2023/07/16 05:27:24;;;;;;;6.30;1.80;;;;;;;;;;4923682;29;20028;-75
2023/07/16 05:29:49;;;;;;;2.90;1.70;;;;;;;;;;4939125;29;20495;-75
2023/07/16 05:32:15;;;;;;;6.00;1.90;;;;;;;;;;4939347;29;20170;-77
2023/07/16 05:34:40;;;;;;;3.30;1.70;;;;;;;;;;4922999;29;20490;-75
2023/07/16 05:37:06;;;;;;;4.53;1.60;;;;;;;;;;4955696;29;20043;-76
2023/07/16 05:39:32;;;;;;;6.68;1.77;;;;;;;;;;4938761;29;20117;-75
2023/07/16 05:41:57;;;;;;;4.35;1.58;;;;;;;;;;4955941;29;20456;-76
2023/07/16 05:44:23;;;;;;;5.18;1.20;;;;;;;;;;4956078;28;20471;-74
2023/07/16 05:46:49;;;;;;;4.45;1.63;;;;;;;;;;4955837;29;20107;-76
2023/07/16 05:49:14;;;;;;;3.83;1.27;;;;;;;;;;4938473;29;20033;-75
2023/07/16 05:51:40;;;;;;;3.47;1.65;;;;;;;;;;4955359;29;20427;-76
2023/07/16 05:54:06;;;;;;;3.95;1.80;;;;;;;;;;4938385;29;20035;-75
2023/07/16 05:56:31;;;;;;;2.67;1.30;;;;;;;;;;4907011;29;20067;-77
2023/07/16 05:58:57;;;;;;;2.95;1.30;;;;;;;;;;4938362;29;20063;-76
2023/07/16 06:01:22;;;;;;;4.18;1.55;;;;;;;;;;4922257;29;20035;-77
2023/07/16 06:03:48;;;;;;;2.88;1.45;;;;;;;;;;4955545;28;20038;-77
2023/07/16 06:06:13;;;;;;;3.28;1.55;;;;;;;;;;4955698;29;20031;-77
2023/07/16 06:08:39;;;;;;;3.17;1.40;;;;;;;;;;4938143;29;20031;-75
2023/07/16 06:11:05;;;;;;;3.28;1.58;;;;;;;;;;4938097;29;20034;-77
2023/07/16 06:13:31;;;;;;;3.80;1.35;;;;;;;;;;4955306;28;20038;-77
2023/07/16 06:15:56;;;;;;;3.35;1.80;;;;;;;;;;4955403;29;20054;-77
2023/07/16 06:18:22;;;;;;;2.88;1.50;;;;;;;;;;4938413;29;20520;-76
2023/07/16 06:20:47;;;;;;;9.20;1.60;;;;;;;;;;4938214;29;20031;-76
2023/07/16 06:23:13;;;;;;;6.50;1.55;;;;;;;;;;4938387;29;20035;-76
2023/07/16 06:25:44;;;;;;;4.63;1.52;;;;;;;;;;4937717;29;20411;-76
2023/07/16 06:28:10;;;;;;;4.53;1.45;;;;;;;;;;4938188;29;20094;-77
2023/07/16 06:30:35;;;;;;;3.63;1.55;;;;;;;;;;4937832;29;20059;-77
2023/07/16 06:33:01;;;;;;;3.10;1.30;;;;;;;;;;4954804;29;20502;-77
2023/07/16 06:35:26;;;;;;;4.45;1.55;;;;;;;;;;4937759;29;20039;-76
2023/07/16 06:37:52;;;;;;;4.10;1.30;;;;;;;;;;4955257;29;20374;-76
2023/07/16 06:40:17;;;;;;;4.85;1.60;;;;;;;;;;4954784;29;20396;-77
2023/07/16 06:42:43;;;;;;;4.03;1.50;;;;;;;;;;4923550;29;20035;-76
2023/07/16 06:45:08;;;;;;;6.03;1.73;;;;;;;;;;4964086;28;20426;-77
2023/07/16 06:47:34;;;;;;;4.53;1.60;;;;;;;;;;4947376;29;20027;-76
2023/07/16 06:49:59;;;;;;;5.30;1.48;;;;;;;;;;4939467;29;20587;-76
2023/07/16 06:52:27;;;;;;;4.95;1.40;;;;;;;;;;4906021;29;20031;-76
2023/07/16 06:54:53;;;;;;;6.28;1.60;;;;;;;;;;4921759;29;20031;-76
2023/07/16 06:57:19;;;;;;;5.60;1.65;;;;;;;;;;4921653;29;20119;-75
2023/07/16 06:59:44;;;;;;;4.75;1.40;;;;;;;;;;4954562;29;20102;-76
2023/07/16 07:02:10;;;;;;;5.65;1.40;;;;;;;;;;4937244;29;20494;-76
2023/07/16 07:04:35;;;;;;;6.20;1.77;;;;;;;;;;4921307;29;20537;-74
2023/07/16 07:07:01;;;;;;;7.88;1.40;;;;;;;;;;4954314;29;20031;-76
2023/07/16 07:09:27;;;;;;;6.47;1.65;;;;;;;;;;4937178;29;20033;-75
2023/07/16 07:11:52;;;;;;;6.03;1.63;;;;;;;;;;4954121;29;20498;-75
2023/07/16 07:14:18;;;;;;;7.30;2.42;;;;;;;;;;4954219;28;20487;-76
2023/07/16 07:16:43;;;;;;;4.50;1.42;;;;;;;;;;4937024;29;20106;-77
2023/07/16 07:19:09;;;;;;;5.15;1.50;;;;;;;;;;4937208;29;20491;-75
2023/07/16 07:21:34;;;;;;;4.50;1.70;;;;;;;;;;4953767;28;20023;-76
2023/07/16 07:23:59;;;;;;;3.78;1.63;;;;;;;;;;4954905;28;20415;-76
2023/07/16 07:26:25;;;;;;;5.70;1.70;;;;;;;;;;4956822;29;20106;-74
2023/07/16 07:28:51;;;;;;;5.53;1.45;;;;;;;;;;4957783;29;20035;-75
2023/07/16 07:31:16;;;;;;;5.75;1.77;;;;;;;;;;4955932;29;20164;-75
2023/07/16 07:33:42;;;;;;;4.85;1.73;;;;;;;;;;4972167;28;20035;-75
2023/07/16 07:36:09;;;;;;;4.45;1.67;;;;;;;;;;4972943;29;20039;-76
2023/07/16 07:38:34;;;;;;;6.45;1.60;;;;;;;;;;4973038;29;20019;-76
2023/07/16 07:41:00;;;;;;;4.72;1.45;;;;;;;;;;4955754;29;20043;-76
2023/07/16 07:43:26;;;;;;;5.38;1.50;;;;;;;;;;4941082;28;20039;-76
2023/07/16 07:45:52;;;;;;;4.82;1.52;;;;;;;;;;4953594;29;20502;-76
2023/07/16 07:48:17;;;;;;;6.28;1.58;;;;;;;;;;4936887;29;20031;-74
2023/07/16 07:50:43;;;;;;;5.82;1.50;;;;;;;;;;4937048;29;20414;-76
2023/07/16 07:53:08;;;;;;;3.75;1.25;;;;;;;;;;4954448;29;20039;-74
2023/07/16 07:55:35;;;;;;;6.40;1.67;;;;;;;;;;4921912;29;20027;-75
2023/07/16 07:58:00;;;;;;;2.92;1.23;;;;;;;;;;4938224;29;20061;-77
2023/07/16 08:00:26;;;;;;;5.93;1.70;;;;;;;;;;4954904;29;20479;-76
2023/07/16 08:02:51;;;;;;;5.20;1.50;;;;;;;;;;4954849;29;20395;-77
2023/07/16 08:05:17;;;;;;;5.72;1.35;;;;;;;;;;4937600;29;20402;-75
2023/07/16 08:07:42;;;;;;;6.57;1.70;;;;;;;;;;4937134;29;20031;-76
2023/07/16 08:10:08;;;;;;;5.70;1.52;;;;;;;;;;4953993;29;20030;-76
2023/07/16 08:12:34;;;;;;;5.20;1.80;;;;;;;;;;4921316;29;20046;-75
2023/07/16 08:14:59;;;;;;;4.05;1.65;;;;;;;;;;4937162;29;20035;-76
2023/07/16 08:17:25;;;;;;;3.85;1.50;;;;;;;;;;4921059;29;20094;-76
2023/07/16 08:19:50;;;;;;;5.93;1.23;;;;;;;;;;4954104;29;20035;-76
2023/07/16 08:22:16;;;;;;;6.93;1.60;;;;;;;;;;4921043;29;20046;-75
2023/07/16 08:24:41;;;;;;;5.38;1.50;;;;;;;;;;4936680;29;20043;-76
2023/07/16 08:27:07;;;;;;;5.68;1.40;;;;;;;;;;4920897;29;20086;-76
2023/07/16 08:29:35;;;;;;;6.47;1.80;;;;;;;;;;4920985;29;20098;-76
2023/07/16 08:32:00;;;;;;;5.10;1.45;;;;;;;;;;4937241;29;20459;-74
2023/07/16 08:34:26;;;;;;;4.78;1.48;;;;;;;;;;4957162;28;20027;-76
2023/07/16 08:36:51;;;;;;;4.97;1.70;;;;;;;;;;4940009;29;20038;-74
2023/07/16 08:39:19;;;;;;;5.28;1.33;;;;;;;;;;4957186;29;20039;-75
2023/07/16 08:41:44;;;;;;;4.28;1.30;;;;;;;;;;4956961;29;20027;-76
2023/07/16 08:44:11;;;;;;;7.68;1.55;;;;;;;;;;4939779;29;20031;-76
2023/07/16 08:46:37;;;;;;;4.13;1.30;;;;;;;;;;4939680;29;20089;-75
2023/07/16 08:49:03;;;;;;;5.72;1.50;;;;;;;;;;4939580;29;20051;-76
2023/07/16 08:51:28;;;;;;;3.92;1.40;;;;;;;;;;4956624;29;20565;-76
2023/07/16 08:53:54;;;;;;;4.93;1.30;;;;;;;;;;4939575;29;20479;-75
2023/07/16 08:56:19;;;;;;;6.45;1.70;;;;;;;;;;4939769;29;20031;-75
2023/07/16 08:58:45;;;;;;;3.60;1.30;;;;;;;;;;4956655;29;20106;-75
2023/07/16 09:01:12;;;;;;;4.95;1.40;;;;;;;;;;4956306;29;20446;-76
2023/07/16 09:03:38;;;;;;;6.13;1.60;;;;;;;;;;4956461;28;20036;-76
2023/07/16 09:06:04;;;;;;;3.60;1.20;;;;;;;;;;4939392;29;20046;-74
2023/07/16 09:08:29;;;;;;;4.43;1.25;;;;;;;;;;4939288;29;20109;-76
2023/07/16 09:10:56;;;;;;;5.65;1.35;;;;;;;;;;4956240;29;20078;-76
2023/07/16 09:13:26;;;;;;;4.47;1.48;;;;;;;;;;4956239;28;20039;-77
2023/07/16 09:15:52;;;;;;;6.53;1.77;;;;;;;;;;4956378;29;20027;-76
2023/07/16 09:18:21;;;;;;;3.90;1.20;;;;;;;;;;4939263;29;20105;-74
2023/07/16 09:20:47;;;;;;;6.15;1.50;;;;;;;;;;4938649;29;20074;-77
2023/07/16 09:23:13;;;;;;;6.35;1.67;;;;;;;;;;4923213;29;20034;-75
2023/07/16 09:25:40;;;;;;;7.68;1.20;;;;;;;;;;4971940;23;20538;-79
2023/07/16 09:28:05;;;;;;;6.32;1.60;;;;;;;;;;4939098;29;20059;-79
2023/07/16 09:30:34;;;;;;;5.05;1.35;;;;;;;;;;4923305;29;20093;-80
2023/07/16 09:33:13;;;;;;;5.93;1.73;;;;;;;;;;4923142;29;20050;-80
2023/07/16 09:35:41;;;;;;;;;;;;;;;;;;4956955;28;20027;-81
2023/07/16 09:38:08;;;;;;;6.55;1.30;;;;;;;;;;4939333;29;19917;-79
2023/07/16 09:40:33;;;;;;;8.52;1.60;;;;;;;;;;4939105;29;20028;-80
2023/07/16 09:43:01;;;;;;;5.13;1.38;;;;;;;;;;4939146;28;20388;-80
2023/07/16 09:45:27;;;;;;;5.60;1.50;;;;;;;;;;4939253;29;20062;-80
2023/07/16 09:47:52;;;;;;;5.03;1.55;;;;;;;;;;4939417;29;20502;-80
2023/07/16 09:50:18;;;;;;;3.55;1.20;;;;;;;;;;4923804;29;20115;-81
2023/07/16 09:52:44;;;;;;;4.60;1.17;;;;;;;;;;4939904;29;20131;-80
2023/07/16 09:55:10;;;;;;;6.63;1.60;;;;;;;;;;4925115;29;20035;-78
2023/07/16 09:57:38;;;;;;;6.55;1.50;;;;;;;;;;4961497;29;20035;-80
2023/07/16 10:00:06;;;;;;;6.00;1.30;;;;;;;;;;4945701;29;20035;-79
2023/07/16 10:02:38;;;;;;;3.13;1.25;;;;;;;;;;4971655;29;20063;-80
2023/07/16 10:05:14;;;;;;;6.07;1.30;;;;;;;;;;4960035;29;20616;-81
2023/07/16 10:07:40;;;;;;;4.60;1.50;;;;;;;;;;4960736;28;20066;-80
2023/07/16 10:10:10;;;;;;;11.13;1.58;;;;;;;;;;4977230;29;20027;-80
2023/07/16 10:12:38;;;;;;;5.88;1.88;;;;;;;;;;4960507;28;20019;-79
2023/07/16 10:15:04;;;;;;;3.97;1.55;;;;;;;;;;4959048;29;20070;-78
2023/07/16 10:17:31;;;;;;;6.80;1.50;;;;;;;;;;4974442;29;20027;-80
2023/07/16 10:19:57;;;;;;;3.95;1.27;;;;;;;;;;4970259;29;20054;-79
2023/07/16 10:22:38;;;;;;;4.15;1.75;;;;;;;;;;4962246;29;20035;-81
2023/07/16 10:25:05;;;;;;;7.15;1.75;;;;;;;;;;4956386;28;20057;-80
2023/07/16 10:27:32;;;;;;;4.82;1.60;;;;;;;;;;4956483;29;20033;-81
2023/07/16 10:29:58;;;;;;;3.45;1.40;;;;;;;;;;4956758;29;20031;-80
2023/07/16 10:32:26;;;;;;;10.90;1.70;;;;;;;;;;4956679;29;20081;-80
2023/07/16 10:34:52;;;;;;;6.15;1.60;;;;;;;;;;4956380;28;20406;-80
2023/07/16 10:37:17;;;;;;;8.20;1.60;;;;;;;;;;4939300;29;20031;-81
2023/07/16 10:39:47;;;;;;;4.45;1.67;;;;;;;;;;4939020;29;20042;-81
2023/07/16 10:42:13;;;;;;;4.30;1.58;;;;;;;;;;4938516;29;20035;-81
2023/07/16 10:44:39;;;;;;;5.32;1.80;;;;;;;;;;4937861;29;20570;-81
2023/07/16 10:47:05;;;;;;;6.55;1.67;;;;;;;;;;4937997;29;20038;-79
2023/07/16 10:49:31;;;;;;;4.95;1.30;;;;;;;;;;4954999;29;20023;-81
2023/07/16 10:51:58;;;;;;;4.18;1.42;;;;;;;;;;4954968;29;20035;-80
2023/07/16 10:54:24;;;;;;;5.28;1.92;;;;;;;;;;4954981;28;20031;-80
2023/07/16 10:56:51;;;;;;;4.03;1.42;;;;;;;;;;4922313;29;20111;-82
2023/07/16 10:59:17;;;;;;;5.18;1.38;;;;;;;;;;4938021;29;20027;-80
2023/07/16 11:01:43;;;;;;;5.53;1.83;;;;;;;;;;4954662;29;20027;-81
2023/07/16 11:04:09;;;;;;;6.15;1.63;;;;;;;;;;4954941;28;20024;-80
2023/07/16 11:06:35;;;;;;;5.32;2.00;;;;;;;;;;4955266;29;20023;-79
2023/07/16 11:09:10;;;;;;;4.45;1.60;;;;;;;;;;4956241;29;20059;-81
2023/07/16 11:11:36;;;;;;;7.07;1.88;;;;;;;;;;4939715;29;20118;-80
2023/07/16 11:14:05;;;;;;;7.50;1.48;;;;;;;;;;4956390;28;20073;-79
2023/07/16 11:16:37;;;;;;;5.70;1.40;;;;;;;;;;4956730;29;20067;-78
2023/07/16 11:19:06;;;;;;;4.30;1.42;;;;;;;;;;4926582;29;20031;-78
2023/07/16 11:21:35;;;;;;;4.53;1.80;;;;;;;;;;4957559;29;20027;-80
2023/07/16 11:24:10;;;;;;;5.95;1.65;;;;;;;;;;4938120;28;20031;-79
2023/07/16 11:26:36;;;;;;;9.55;1.58;;;;;;;;;;4954812;29;20035;-81
2023/07/16 11:29:11;;;;;;;3.58;1.63;;;;;;;;;;4954489;29;20610;-80
2023/07/16 11:31:38;;;;;;;5.60;1.40;;;;;;;;;;4937197;29;20031;-80
2023/07/16 11:34:04;;;;;;;6.32;1.80;;;;;;;;;;4954327;28;20114;-81
2023/07/16 11:36:29;;;;;;;5.25;1.55;;;;;;;;;;4954690;29;20481;-81
2023/07/16 11:38:55;;;;;;;4.10;1.40;;;;;;;;;;4955020;29;20042;-81
2023/07/16 11:41:21;;;;;;;10.38;1.80;;;;;;;;;;4954575;29;20051;-80
2023/07/16 11:43:47;;;;;;;3.13;1.45;;;;;;;;;;4937442;28;20498;-80
2023/07/16 11:46:16;;;;;;;4.40;1.40;;;;;;;;;;4921282;29;20027;-80
2023/07/16 11:48:41;;;;;;;4.35;1.73;;;;;;;;;;4937144;29;20044;-80
2023/07/16 11:51:07;;;;;;;10.13;1.60;;;;;;;;;;4954253;29;20042;-80
2023/07/16 11:53:33;;;;;;;9.27;1.70;;;;;;;;;;4954718;29;20391;-80
2023/07/16 11:55:58;;;;;;;4.68;2.00;;;;;;;;;;4954065;28;20046;-80
2023/07/16 11:58:24;;;;;;;4.20;1.65;;;;;;;;;;4954245;29;20048;-80
2023/07/16 12:00:51;;;;;;;5.22;1.80;;;;;;;;;;4937571;29;20031;-80
2023/07/16 12:03:16;;;;;;;5.45;1.90;;;;;;;;;;4954082;29;20094;-80
2023/07/16 12:05:42;;;;;;;7.45;1.70;;;;;;;;;;4936839;29;20442;-80
2023/07/16 12:08:13;;;;;;;5.18;1.60;;;;;;;;;;4924423;29;20028;-81
2023/07/16 12:10:40;;;;;;;7.72;1.88;;;;;;;;;;4941955;29;20050;-80
2023/07/16 12:13:05;;;;;;;3.60;1.70;;;;;;;;;;4941183;29;20454;-80
2023/07/16 12:15:31;;;;;;;4.30;1.83;;;;;;;;;;4941255;29;20069;-79
2023/07/16 12:17:56;;;;;;;6.00;1.85;;;;;;;;;;4942626;29;20024;-80
2023/07/16 12:20:22;;;;;;;5.13;1.80;;;;;;;;;;4941255;29;20550;-79
2023/07/16 12:22:47;;;;;;;3.10;1.45;;;;;;;;;;4958457;29;20074;-80
2023/07/16 12:25:13;;;;;;;4.60;1.50;;;;;;;;;;4940489;29;20481;-80
2023/07/16 12:27:39;;;;;;;6.32;1.70;;;;;;;;;;4958651;29;20042;-80
2023/07/16 12:30:05;;;;;;;5.03;1.70;;;;;;;;;;4943069;29;20487;-80
2023/07/16 12:32:30;;;;;;;6.55;1.58;;;;;;;;;;4960956;29;20063;-80
2023/07/16 12:34:57;;;;;;;6.47;1.95;;;;;;;;;;4965297;28;20031;-79
2023/07/16 12:37:23;;;;;;;6.45;1.52;;;;;;;;;;4973321;29;20027;-79
2023/07/16 12:39:48;;;;;;;5.75;1.80;;;;;;;;;;4958090;29;20050;-79
2023/07/16 12:42:14;;;;;;;4.38;1.70;;;;;;;;;;4976582;29;20055;-80
2023/07/16 12:44:40;;;;;;;6.57;1.95;;;;;;;;;;4975454;28;20043;-79
2023/07/16 12:47:08;;;;;;;9.68;1.70;;;;;;;;;;4960196;29;20027;-80
2023/07/16 12:49:34;;;;;;;5.80;2.08;;;;;;;;;;4948557;29;20042;-79
2023/07/16 12:51:59;;;;;;;5.82;2.50;;;;;;;;;;4963910;29;20035;-79
2023/07/16 12:54:25;;;;;;;5.95;1.75;;;;;;;;;;4958227;28;20054;-79
2023/07/16 12:56:50;;;;;;;5.10;1.85;;;;;;;;;;4941339;29;20392;-82
2023/07/16 12:59:16;;;;;;;4.93;1.60;;;;;;;;;;4958360;29;20023;-81
2023/07/16 13:01:41;;;;;;;4.70;1.90;;;;;;;;;;4958430;29;20038;-80
2023/07/16 13:04:07;;;;;;;3.58;1.73;;;;;;;;;;4940954;29;20403;-79
2023/07/16 13:06:32;;;;;;;7.28;2.15;;;;;;;;;;4958473;29;20055;-80
2023/07/16 13:08:59;;;;;;;5.65;1.85;;;;;;;;;;4940429;29;20122;-79
2023/07/16 13:11:24;;;;;;;6.78;1.70;;;;;;;;;;4924514;29;20039;-80
2023/07/16 13:13:50;;;;;;;5.18;1.95;;;;;;;;;;4940381;28;20037;-81
2023/07/16 13:16:15;;;;;;;6.32;2.00;;;;;;;;;;4956950;29;20114;-80
2023/07/16 13:18:41;;;;;;;5.40;1.75;;;;;;;;;;4940564;29;20031;-79
2023/07/16 13:21:06;;;;;;;7.40;2.05;;;;;;;;;;4958927;29;20115;-80
2023/07/16 13:23:32;;;;;;;4.15;1.88;;;;;;;;;;4926934;29;20388;-81
2023/07/16 13:25:58;;;;;;;4.45;2.00;;;;;;;;;;4958872;28;20031;-79
2023/07/16 13:28:24;;;;;;;5.53;2.20;;;;;;;;;;4924617;29;20039;-80
2023/07/16 13:30:49;;;;;;;5.10;1.80;;;;;;;;;;4940995;29;20317;-80
2023/07/16 13:33:15;;;;;;;8.02;2.10;;;;;;;;;;4944160;29;20047;-80
2023/07/16 13:35:41;;;;;;;5.63;2.00;;;;;;;;;;4942557;29;20031;-79
2023/07/16 13:38:06;;;;;;;5.60;1.90;;;;;;;;;;4961531;29;20155;-80
2023/07/16 13:40:32;;;;;;;5.90;2.10;;;;;;;;;;4958440;29;20078;-78
2023/07/16 13:42:58;;;;;;;6.03;2.00;;;;;;;;;;4958022;29;20046;-80
2023/07/16 13:45:24;;;;;;;7.47;2.30;;;;;;;;;;4924282;29;20031;-78
2023/07/16 13:47:52;;;;;;;7.07;2.08;;;;;;;;;;4941604;29;20514;-79
2023/07/16 13:50:20;;;;;;;7.00;2.33;;;;;;;;;;4939797;29;20039;-80
2023/07/16 13:52:49;;;;;;;4.53;1.98;;;;;;;;;;4939747;29;20513;-80
2023/07/16 13:55:14;;;;;;;4.97;2.00;;;;;;;;;;4923666;29;20520;-80
2023/07/16 13:57:40;;;;;;;3.92;1.80;;;;;;;;;;4924648;29;20035;-80
2023/07/16 14:00:09;;;;;;;4.75;2.03;;;;;;;;;;4940515;29;20110;-80
2023/07/16 14:02:35;;;;;;;4.80;2.13;;;;;;;;;;4957086;29;20041;-80
2023/07/16 14:05:00;;;;;;;5.75;2.15;;;;;;;;;;4956913;28;20027;-81
2023/07/16 14:07:26;;;;;;;5.05;2.40;;;;;;;;;;4909104;29;20039;-79
2023/07/16 14:09:51;;;;;;;4.57;1.83;;;;;;;;;;4958710;29;20023;-79
2023/07/16 14:12:17;;;;;;;8.27;2.38;;;;;;;;;;4958447;29;20030;-81
2023/07/16 14:14:43;;;;;;;4.50;1.70;;;;;;;;;;4925261;29;20372;-79
2023/07/16 14:17:09;;;;;;;8.88;2.15;;;;;;;;;;4940152;29;20027;-80
2023/07/16 14:19:35;;;;;;;8.70;2.20;;;;;;;;;;4958251;29;20067;-80
2023/07/16 14:22:01;;;;;;;12.60;2.70;;;;;;;;;;4957101;29;20035;-79
2023/07/16 14:24:26;;;;;;;7.07;1.85;;;;;;;;;;4955879;28;20451;-80
2023/07/16 14:26:52;;;;;;;5.20;2.03;;;;;;;;;;4939963;29;20082;-79
2023/07/16 14:29:17;;;;;;;4.88;2.08;;;;;;;;;;4922829;28;20497;-80
2023/07/16 14:31:43;;;;;;;7.25;2.35;;;;;;;;;;4922966;29;20035;-79
2023/07/16 14:34:08;;;;;;;5.32;1.90;;;;;;;;;;4956707;28;20122;-80
2023/07/16 14:36:34;;;;;;;6.45;2.38;;;;;;;;;;4955316;29;20035;-80